createdAt,value
2023-03-04T00:00:19.790Z,90.50
2023-03-04T00:01:19.769Z,90.50
2023-03-04T00:02:19.887Z,90.50
2023-03-04T00:03:19.812Z,90.29
2023-03-04T00:04:19.732Z,90.29
2023-03-04T00:05:19.761Z,90.60
2023-03-04T00:06:19.726Z,90.60
2023-03-04T00:07:19.829Z,90.60
2023-03-04T00:08:19.708Z,90.39
2023-03-04T00:09:19.714Z,89.98
2023-03-04T00:10:19.684Z,90.19
2023-03-04T00:11:19.663Z,90.50
2023-03-04T00:12:19.648Z,89.98
2023-03-04T00:13:19.636Z,89.98
2023-03-04T00:14:19.652Z,90.19
2023-03-04T00:15:19.618Z,90.19
2023-03-04T00:16:19.633Z,89.98
2023-03-04T00:17:19.593Z,89.87
2023-03-04T00:18:19.579Z,89.62
2023-03-04T00:19:26.632Z,89.56
2023-03-04T00:20:19.569Z,89.56
2023-03-04T00:21:19.557Z,89.73
2023-03-04T00:22:19.544Z,89.73
2023-03-04T00:23:19.533Z,89.83
2023-03-04T00:24:19.537Z,89.62
2023-03-04T00:25:19.536Z,89.21
2023-03-04T00:26:19.523Z,89.42
2023-03-04T00:27:19.491Z,89.04
2023-03-04T00:28:19.574Z,89.11
2023-03-04T00:29:19.478Z,89.11
2023-03-04T00:30:19.457Z,88.90
2023-03-04T00:31:19.478Z,89.00
2023-03-04T00:32:19.495Z,89.11
2023-03-04T00:33:19.437Z,88.69
2023-03-04T00:34:19.430Z,89.00
2023-03-04T00:35:19.429Z,88.65
2023-03-04T00:36:19.383Z,88.69
2023-03-04T00:37:19.401Z,88.90
2023-03-04T00:38:19.363Z,88.69
2023-03-04T00:39:19.378Z,88.96
2023-03-04T00:40:19.362Z,88.44
2023-03-04T00:41:19.339Z,88.34
2023-03-04T00:42:19.323Z,88.44
2023-03-04T00:43:19.334Z,88.65
2023-03-04T00:44:19.298Z,88.54
2023-03-04T00:45:19.288Z,88.54
2023-03-04T00:46:19.325Z,88.75
2023-03-04T00:47:19.277Z,88.75
2023-03-04T00:48:19.284Z,88.65
2023-03-04T00:49:19.251Z,88.65
2023-03-04T00:50:19.235Z,88.54
2023-03-04T00:51:19.227Z,88.75
2023-03-04T00:52:19.213Z,88.65
2023-03-04T00:53:19.246Z,88.75
2023-03-04T00:54:19.188Z,88.54
2023-03-04T00:55:19.215Z,88.65
2023-03-04T00:56:19.910Z,88.85
2023-03-04T00:57:19.161Z,88.75
2023-03-04T00:58:19.144Z,88.75
2023-03-04T00:59:19.173Z,88.65
2023-03-04T01:00:19.135Z,88.65
2023-03-04T01:01:19.204Z,88.75
2023-03-04T01:02:19.169Z,88.96
2023-03-04T01:03:19.090Z,88.23
2023-03-04T01:04:19.084Z,88.75
2023-03-04T01:05:19.083Z,88.96
2023-03-04T01:06:19.064Z,87.82
2023-03-04T01:07:19.057Z,88.02
2023-03-04T01:08:19.226Z,87.82
2023-03-04T01:09:19.037Z,88.02
2023-03-04T01:10:19.019Z,88.34
2023-03-04T01:11:19.009Z,87.82
2023-03-04T01:12:19.017Z,87.61
2023-03-04T01:13:19.000Z,87.82
2023-03-04T01:14:18.975Z,87.82
2023-03-04T01:15:18.970Z,87.82
2023-03-04T01:16:18.962Z,87.82
2023-03-04T01:17:18.942Z,87.51
2023-03-04T01:18:18.942Z,87.19
2023-03-04T01:19:18.927Z,87.30
2023-03-04T01:20:18.907Z,87.30
2023-03-04T01:21:18.889Z,87.05
2023-03-04T01:22:18.900Z,87.40
2023-03-04T01:23:18.878Z,87.40
2023-03-04T01:24:18.867Z,87.30
2023-03-04T01:25:18.850Z,87.16
2023-03-04T01:26:18.844Z,87.09
2023-03-04T01:27:18.975Z,87.37
2023-03-04T01:28:18.833Z,87.26
2023-03-04T01:29:18.808Z,87.40
2023-03-04T01:30:18.795Z,87.16
2023-03-04T01:31:18.787Z,87.26
2023-03-04T01:32:18.816Z,87.26
2023-03-04T01:33:18.765Z,87.16
2023-03-04T01:34:18.750Z,86.85
2023-03-04T01:35:18.838Z,87.05
2023-03-04T01:36:18.736Z,87.09
2023-03-04T01:37:18.760Z,86.95
2023-03-04T01:38:18.709Z,86.95
2023-03-04T01:39:18.711Z,86.95
2023-03-04T01:40:18.691Z,87.26
2023-03-04T01:41:18.677Z,86.95
2023-03-04T01:42:18.693Z,86.85
2023-03-04T01:43:18.656Z,86.85
2023-03-04T01:44:18.663Z,86.74
2023-03-04T01:45:18.632Z,86.74
2023-03-04T01:46:18.697Z,86.74
2023-03-04T01:47:18.632Z,86.95
2023-03-04T01:48:18.605Z,86.95
2023-03-04T01:49:18.593Z,86.95
2023-03-04T01:50:18.593Z,86.85
2023-03-04T01:51:18.603Z,86.85
2023-03-04T01:52:18.589Z,86.95
2023-03-04T01:53:18.599Z,87.26
2023-03-04T01:54:18.539Z,87.26
2023-03-04T01:55:18.529Z,87.37
2023-03-04T01:56:18.521Z,87.16
2023-03-04T01:57:18.543Z,86.85
2023-03-04T01:58:18.495Z,87.05
2023-03-04T01:59:18.490Z,87.01
2023-03-04T02:00:18.490Z,87.26
2023-03-04T02:01:18.536Z,87.05
2023-03-04T02:02:18.479Z,87.37
2023-03-04T02:03:18.457Z,87.01
2023-03-04T02:04:18.480Z,87.47
2023-03-04T02:05:18.421Z,87.37
2023-03-04T02:06:18.439Z,87.32
2023-03-04T02:07:18.399Z,87.43
2023-03-04T02:08:18.402Z,87.22
2023-03-04T02:09:18.416Z,87.43
2023-03-04T02:10:18.363Z,87.22
2023-03-04T02:11:18.357Z,87.32
2023-03-04T02:12:18.358Z,87.22
2023-03-04T02:13:18.357Z,87.32
2023-03-04T02:14:18.344Z,87.22
2023-03-04T02:15:18.317Z,87.22
2023-03-04T02:16:18.376Z,87.32
2023-03-04T02:17:18.311Z,87.32
2023-03-04T02:18:18.285Z,87.28
2023-03-04T02:19:18.421Z,87.32
2023-03-04T02:20:18.267Z,87.28
2023-03-04T02:21:18.276Z,87.28
2023-03-04T02:22:18.255Z,87.18
2023-03-04T02:23:18.235Z,87.07
2023-03-04T02:24:18.216Z,87.07
2023-03-04T02:25:18.223Z,87.07
2023-03-04T02:26:18.222Z,87.53
2023-03-04T02:27:19.891Z,87.49
2023-03-04T02:28:18.178Z,87.49
2023-03-04T02:29:18.240Z,87.38
2023-03-04T02:30:18.155Z,87.49
2023-03-04T02:31:18.203Z,87.53
2023-03-04T02:32:18.205Z,87.74
2023-03-04T02:33:18.142Z,87.59
2023-03-04T02:34:18.136Z,87.70
2023-03-04T02:35:18.347Z,87.70
2023-03-04T02:36:18.161Z,87.80
2023-03-04T02:37:18.103Z,87.70
2023-03-04T02:38:18.065Z,87.70
2023-03-04T02:39:18.119Z,88.63
2023-03-04T02:40:18.068Z,88.53
2023-03-04T02:41:18.043Z,88.63
2023-03-04T02:42:18.034Z,88.63
2023-03-04T02:43:18.047Z,88.32
2023-03-04T02:44:18.011Z,88.32
2023-03-04T02:45:17.995Z,88.73
2023-03-04T02:46:18.018Z,88.48
2023-03-04T02:47:17.996Z,88.53
2023-03-04T02:48:17.982Z,88.42
2023-03-04T02:49:17.989Z,88.28
2023-03-04T02:50:17.945Z,88.53
2023-03-04T02:51:17.950Z,88.73
2023-03-04T02:52:17.954Z,88.53
2023-03-04T02:53:17.910Z,88.42
2023-03-04T02:54:17.921Z,88.53
2023-03-04T02:55:17.890Z,88.32
2023-03-04T02:56:17.880Z,88.32
2023-03-04T02:57:17.867Z,88.53
2023-03-04T02:58:17.868Z,88.32
2023-03-04T02:59:17.840Z,88.32
2023-03-04T03:00:17.829Z,88.32
2023-03-04T03:01:17.827Z,88.32
2023-03-04T03:02:17.809Z,88.32
2023-03-04T03:03:17.820Z,88.28
2023-03-04T03:04:17.940Z,88.48
2023-03-04T03:05:17.777Z,88.32
2023-03-04T03:06:17.766Z,88.28
2023-03-04T03:07:17.770Z,88.39
2023-03-04T03:08:17.755Z,88.48
2023-03-04T03:09:17.736Z,88.28
2023-03-04T03:10:17.737Z,88.28
2023-03-04T03:11:17.717Z,88.28
2023-03-04T03:12:17.718Z,88.28
2023-03-04T03:13:17.694Z,88.18
2023-03-04T03:14:17.686Z,88.18
2023-03-04T03:15:17.668Z,88.18
2023-03-04T03:16:17.718Z,88.28
2023-03-04T03:17:17.654Z,88.28
2023-03-04T03:18:17.670Z,88.18
2023-03-04T03:19:17.627Z,88.48
2023-03-04T03:20:17.647Z,88.48
2023-03-04T03:21:17.603Z,88.48
2023-03-04T03:22:17.597Z,88.39
2023-03-04T03:23:17.584Z,88.79
2023-03-04T03:24:17.595Z,88.79
2023-03-04T03:25:17.557Z,88.59
2023-03-04T03:26:17.556Z,88.69
2023-03-04T03:27:17.560Z,88.69
2023-03-04T03:28:17.596Z,89.00
2023-03-04T03:29:17.520Z,88.90
2023-03-04T03:30:17.501Z,89.00
2023-03-04T03:31:17.648Z,89.42
2023-03-04T03:32:17.574Z,88.90
2023-03-04T03:33:17.478Z,88.90
2023-03-04T03:34:17.463Z,89.00
2023-03-04T03:35:17.497Z,89.21
2023-03-04T03:36:17.548Z,89.42
2023-03-04T03:37:17.501Z,89.42
2023-03-04T03:38:17.412Z,89.52
2023-03-04T03:39:17.417Z,89.42
2023-03-04T03:40:17.391Z,89.21
2023-03-04T03:41:17.382Z,89.31
2023-03-04T03:42:17.390Z,89.42
2023-03-04T03:43:17.356Z,89.42
2023-03-04T03:44:17.366Z,89.42
2023-03-04T03:45:17.342Z,89.31
2023-03-04T03:46:17.327Z,89.42
2023-03-04T03:47:17.339Z,89.42
2023-03-04T03:48:17.307Z,89.21
2023-03-04T03:49:17.300Z,89.52
2023-03-04T03:50:17.287Z,89.42
2023-03-04T03:51:17.308Z,89.52
2023-03-04T03:52:17.294Z,89.31
2023-03-04T03:53:17.252Z,89.21
2023-03-04T03:54:17.925Z,89.42
2023-03-04T03:55:17.227Z,89.28
2023-03-04T03:56:17.252Z,89.31
2023-03-04T03:57:17.216Z,89.28
2023-03-04T03:58:17.198Z,89.52
2023-03-04T03:59:17.200Z,89.48
2023-03-04T04:00:17.172Z,89.21
2023-03-04T04:01:17.163Z,89.21
2023-03-04T04:02:17.379Z,89.52
2023-03-04T04:03:17.151Z,89.48
2023-03-04T04:04:17.143Z,89.52
2023-03-04T04:05:17.126Z,89.17
2023-03-04T04:06:17.124Z,89.17
2023-03-04T04:07:17.103Z,89.48
2023-03-04T04:08:17.166Z,89.38
2023-03-04T04:09:17.086Z,89.38
2023-03-04T04:10:17.076Z,89.17
2023-03-04T04:11:17.078Z,89.52
2023-03-04T04:12:17.064Z,89.31
2023-03-04T04:13:17.038Z,89.42
2023-03-04T04:14:17.036Z,89.38
2023-03-04T04:15:17.882Z,89.31
2023-03-04T04:16:17.045Z,89.42
2023-03-04T04:17:16.989Z,89.21
2023-03-04T04:18:16.980Z,89.28
2023-03-04T04:19:16.965Z,89.48
2023-03-04T04:20:16.971Z,89.48
2023-03-04T04:21:16.965Z,89.28
2023-03-04T04:22:17.020Z,89.28
2023-03-04T04:23:16.921Z,89.28
2023-03-04T04:24:16.970Z,89.28
2023-03-04T04:25:16.915Z,89.17
2023-03-04T04:26:16.908Z,89.28
2023-03-04T04:27:16.881Z,89.17
2023-03-04T04:28:16.871Z,89.38
2023-03-04T04:29:16.946Z,89.07
2023-03-04T04:30:16.847Z,89.17
2023-03-04T04:31:16.835Z,89.17
2023-03-04T04:32:16.904Z,88.96
2023-03-04T04:33:16.815Z,89.13
2023-03-04T04:34:16.899Z,88.96
2023-03-04T04:35:16.800Z,89.28
2023-03-04T04:36:16.794Z,89.38
2023-03-04T04:37:16.779Z,88.92
2023-03-04T04:38:16.751Z,89.48
2023-03-04T04:39:16.765Z,89.13
2023-03-04T04:40:16.806Z,88.82
2023-03-04T04:41:16.722Z,88.92
2023-03-04T04:42:16.715Z,88.82
2023-03-04T04:43:16.699Z,88.92
2023-03-04T04:44:16.709Z,88.76
2023-03-04T04:45:16.679Z,88.96
2023-03-04T04:46:16.768Z,88.96
2023-03-04T04:47:16.655Z,88.82
2023-03-04T04:48:16.671Z,88.82
2023-03-04T04:49:16.638Z,89.03
2023-03-04T04:50:16.648Z,88.76
2023-03-04T04:51:16.607Z,88.76
2023-03-04T04:52:16.610Z,89.03
2023-03-04T04:53:16.597Z,88.96
2023-03-04T04:54:16.587Z,88.82
2023-03-04T04:55:16.753Z,89.03
2023-03-04T04:56:16.575Z,89.13
2023-03-04T04:57:16.548Z,89.13
2023-03-04T04:58:16.565Z,88.82
2023-03-04T04:59:16.526Z,88.82
2023-03-04T05:00:16.509Z,89.17
2023-03-04T05:01:16.565Z,89.54
2023-03-04T05:02:16.491Z,89.48
2023-03-04T05:03:18.515Z,89.13
2023-03-04T05:04:16.485Z,89.34
2023-03-04T05:05:16.480Z,89.28
2023-03-04T05:06:16.448Z,89.34
2023-03-04T05:07:16.434Z,89.23
2023-03-04T05:08:16.446Z,89.13
2023-03-04T05:09:16.423Z,89.28
2023-03-04T05:10:16.412Z,89.44
2023-03-04T05:11:16.395Z,89.28
2023-03-04T05:12:16.401Z,89.34
2023-03-04T05:13:16.369Z,89.34
2023-03-04T05:14:16.380Z,89.28
2023-03-04T05:15:16.346Z,89.44
2023-03-04T05:16:16.406Z,89.44
2023-03-04T05:17:16.528Z,89.23
2023-03-04T05:18:16.316Z,89.34
2023-03-04T05:19:16.304Z,89.69
2023-03-04T05:20:16.290Z,89.54
2023-03-04T05:21:16.284Z,89.34
2023-03-04T05:22:16.271Z,89.34
2023-03-04T05:23:16.276Z,89.48
2023-03-04T05:24:16.252Z,89.23
2023-03-04T05:25:16.232Z,89.34
2023-03-04T05:26:16.242Z,89.44
2023-03-04T05:27:16.226Z,89.65
2023-03-04T05:28:16.236Z,89.34
2023-03-04T05:29:16.191Z,89.34
2023-03-04T05:30:16.182Z,89.34
2023-03-04T05:31:16.181Z,89.34
2023-03-04T05:32:16.226Z,89.13
2023-03-04T05:33:16.149Z,89.44
2023-03-04T05:34:16.137Z,89.23
2023-03-04T05:35:16.131Z,89.34
2023-03-04T05:36:16.123Z,89.28
2023-03-04T05:37:16.120Z,89.23
2023-03-04T05:38:16.115Z,89.23
2023-03-04T05:39:16.085Z,89.13
2023-03-04T05:40:16.073Z,89.44
2023-03-04T05:41:16.060Z,89.23
2023-03-04T05:42:16.073Z,89.23
2023-03-04T05:43:16.052Z,89.13
2023-03-04T05:44:16.066Z,89.03
2023-03-04T05:45:16.033Z,89.23
2023-03-04T05:46:16.083Z,89.44
2023-03-04T05:47:15.988Z,89.34
2023-03-04T05:48:16.003Z,89.44
2023-03-04T05:49:15.978Z,89.09
2023-03-04T05:50:15.979Z,89.13
2023-03-04T05:51:15.957Z,89.29
2023-03-04T05:52:15.945Z,89.54
2023-03-04T05:53:15.943Z,89.71
2023-03-04T05:54:15.916Z,89.65
2023-03-04T05:55:15.910Z,89.86
2023-03-04T05:56:15.896Z,89.61
2023-03-04T05:57:15.881Z,89.92
2023-03-04T05:58:15.889Z,89.71
2023-03-04T05:59:15.859Z,89.50
2023-03-04T06:00:15.863Z,89.71
2023-03-04T06:01:15.860Z,89.92
2023-03-04T06:02:15.931Z,89.92
2023-03-04T06:03:15.817Z,90.02
2023-03-04T06:04:15.851Z,89.92
2023-03-04T06:05:15.792Z,89.61
2023-03-04T06:06:15.797Z,89.61
2023-03-04T06:07:15.778Z,89.81
2023-03-04T06:08:15.770Z,89.81
2023-03-04T06:09:15.784Z,90.02
2023-03-04T06:10:15.736Z,90.23
2023-03-04T06:11:15.759Z,90.33
2023-03-04T06:12:15.716Z,90.23
2023-03-04T06:13:15.702Z,90.33
2023-03-04T06:14:15.797Z,90.64
2023-03-04T06:15:15.689Z,90.53
2023-03-04T06:16:15.807Z,90.74
2023-03-04T06:17:15.659Z,90.64
2023-03-04T06:18:15.652Z,90.64
2023-03-04T06:19:23.450Z,90.33
2023-03-04T06:20:15.633Z,90.95
2023-03-04T06:21:15.799Z,90.95
2023-03-04T06:22:15.629Z,90.84
2023-03-04T06:23:15.808Z,91.05
2023-03-04T06:24:15.593Z,90.95
2023-03-04T06:25:15.585Z,90.95
2023-03-04T06:26:15.865Z,91.26
2023-03-04T06:27:15.563Z,91.26
2023-03-04T06:28:15.539Z,91.26
2023-03-04T06:29:15.525Z,91.26
2023-03-04T06:30:15.519Z,91.26
2023-03-04T06:31:15.616Z,91.16
2023-03-04T06:32:15.554Z,90.95
2023-03-04T06:33:15.482Z,90.95
2023-03-04T06:34:15.470Z,91.05
2023-03-04T06:35:15.468Z,91.26
2023-03-04T06:36:15.460Z,91.36
2023-03-04T06:37:15.443Z,91.47
2023-03-04T06:38:15.429Z,91.57
2023-03-04T06:39:15.428Z,91.78
2023-03-04T06:40:15.400Z,91.67
2023-03-04T06:41:15.401Z,92.09
2023-03-04T06:42:15.382Z,91.63
2023-03-04T06:43:15.377Z,92.05
2023-03-04T06:44:15.361Z,92.15
2023-03-04T06:45:15.345Z,92.46
2023-03-04T06:46:15.348Z,92.25
2023-03-04T06:47:15.969Z,92.25
2023-03-04T06:48:15.506Z,92.05
2023-03-04T06:49:16.587Z,92.25
2023-03-04T06:50:15.289Z,92.25
2023-03-04T06:51:15.277Z,92.46
2023-03-04T06:52:15.271Z,92.15
2023-03-04T06:53:15.255Z,92.67
2023-03-04T06:54:15.275Z,92.46
2023-03-04T06:55:15.254Z,92.77
2023-03-04T06:56:15.238Z,93.49
2023-03-04T06:57:15.211Z,93.08
2023-03-04T06:58:15.214Z,93.18
2023-03-04T06:59:15.189Z,92.97
2023-03-04T07:00:15.185Z,93.18
2023-03-04T07:01:15.240Z,93.39
2023-03-04T07:02:15.199Z,93.49
2023-03-04T07:03:15.182Z,93.39
2023-03-04T07:04:15.259Z,93.45
2023-03-04T07:05:15.126Z,93.08
2023-03-04T07:06:15.120Z,93.49
2023-03-04T07:07:15.099Z,93.49
2023-03-04T07:08:15.103Z,93.24
2023-03-04T07:09:15.081Z,93.45
2023-03-04T07:10:15.078Z,93.87
2023-03-04T07:11:15.104Z,93.45
2023-03-04T07:12:15.064Z,93.45
2023-03-04T07:13:15.961Z,93.55
2023-03-04T07:14:15.023Z,92.93
2023-03-04T07:15:16.095Z,92.83
2023-03-04T07:16:15.049Z,92.93
2023-03-04T07:17:15.000Z,93.24
2023-03-04T07:18:14.975Z,92.93
2023-03-04T07:19:14.965Z,93.24
2023-03-04T07:20:15.164Z,93.24
2023-03-04T07:21:14.947Z,93.87
2023-03-04T07:22:16.926Z,94.38
2023-03-04T07:23:14.921Z,94.32
2023-03-04T07:24:14.913Z,94.90
2023-03-04T07:25:14.898Z,94.73
2023-03-04T07:26:14.907Z,95.04
2023-03-04T07:27:14.890Z,94.94
2023-03-04T07:28:14.866Z,95.15
2023-03-04T07:29:14.855Z,95.04
2023-03-04T07:30:14.841Z,95.73
2023-03-04T07:31:14.835Z,95.56
2023-03-04T07:32:14.966Z,95.56
2023-03-04T07:33:14.819Z,95.73
2023-03-04T07:34:14.799Z,95.31
2023-03-04T07:35:14.788Z,95.10
2023-03-04T07:36:14.808Z,95.00
2023-03-04T07:37:14.767Z,94.69
2023-03-04T07:38:14.767Z,94.79
2023-03-04T07:39:14.746Z,95.00
2023-03-04T07:40:14.738Z,94.96
2023-03-04T07:41:14.722Z,95.42
2023-03-04T07:42:14.731Z,94.54
2023-03-04T07:43:14.702Z,94.85
2023-03-04T07:44:14.686Z,93.98
2023-03-04T07:45:14.677Z,93.57
2023-03-04T07:46:14.693Z,93.22
2023-03-04T07:47:14.670Z,92.64
2023-03-04T07:48:14.698Z,92.19
2023-03-04T07:49:14.648Z,92.02
2023-03-04T07:50:16.953Z,91.82
2023-03-04T07:51:14.632Z,92.44
2023-03-04T07:52:14.615Z,92.85
2023-03-04T07:53:14.608Z,92.74
2023-03-04T07:54:14.578Z,92.85
2023-03-04T07:55:14.560Z,93.16
2023-03-04T07:56:14.566Z,93.68
2023-03-04T07:57:14.560Z,94.29
2023-03-04T07:58:14.535Z,94.71
2023-03-04T07:59:14.522Z,94.81
2023-03-04T08:00:15.475Z,93.98
2023-03-04T08:01:14.521Z,93.78
2023-03-04T08:02:14.533Z,93.63
2023-03-04T08:03:14.480Z,92.91
2023-03-04T08:04:14.518Z,92.97
2023-03-04T08:05:14.458Z,92.50
2023-03-04T08:06:14.442Z,91.98
2023-03-04T08:07:14.447Z,92.08
2023-03-04T08:08:16.403Z,91.73
2023-03-04T08:09:14.415Z,91.98
2023-03-04T08:10:14.411Z,91.88
2023-03-04T08:11:14.394Z,92.14
2023-03-04T08:12:14.398Z,91.63
2023-03-04T08:13:14.372Z,91.32
2023-03-04T08:14:14.491Z,91.52
2023-03-04T08:15:14.359Z,91.22
2023-03-04T08:16:14.373Z,91.46
2023-03-04T08:17:14.328Z,91.05
2023-03-04T08:18:14.313Z,90.70
2023-03-04T08:19:14.302Z,90.91
2023-03-04T08:20:14.304Z,90.59
2023-03-04T08:21:14.403Z,90.80
2023-03-04T08:22:14.266Z,90.70
2023-03-04T08:23:14.255Z,91.01
2023-03-04T08:24:14.293Z,91.16
2023-03-04T08:25:14.238Z,91.11
2023-03-04T08:26:14.240Z,91.01
2023-03-04T08:27:14.216Z,91.05
2023-03-04T08:28:14.207Z,90.95
2023-03-04T08:29:14.192Z,90.91
2023-03-04T08:30:14.208Z,90.53
2023-03-04T08:31:14.266Z,90.22
2023-03-04T08:32:14.227Z,90.22
2023-03-04T08:33:14.144Z,90.39
2023-03-04T08:34:14.135Z,90.28
2023-03-04T08:35:14.125Z,90.22
2023-03-04T08:36:14.127Z,89.67
2023-03-04T08:37:14.103Z,89.50
2023-03-04T08:38:14.090Z,89.29
2023-03-04T08:39:14.086Z,88.84
2023-03-04T08:40:14.098Z,88.98
2023-03-04T08:41:14.057Z,89.09
2023-03-04T08:42:14.045Z,89.05
2023-03-04T08:43:14.039Z,89.15
2023-03-04T08:44:14.028Z,88.53
2023-03-04T08:45:14.521Z,87.92
2023-03-04T08:46:14.007Z,88.02
2023-03-04T08:47:14.209Z,88.12
2023-03-04T08:48:13.977Z,87.40
2023-03-04T08:49:13.971Z,86.36
2023-03-04T08:50:13.962Z,86.05
2023-03-04T08:51:13.977Z,86.05
2023-03-04T08:52:13.942Z,86.02
2023-03-04T08:53:13.931Z,86.12
2023-03-04T08:54:13.964Z,86.22
2023-03-04T08:55:13.934Z,85.19
2023-03-04T08:56:13.925Z,84.99
2023-03-04T08:57:13.881Z,84.36
2023-03-04T08:58:13.873Z,83.64
2023-03-04T08:59:13.859Z,83.61
2023-03-04T09:00:13.857Z,83.19
2023-03-04T09:01:13.854Z,82.16
2023-03-04T09:02:13.830Z,81.85
2023-03-04T09:03:13.876Z,81.96
2023-03-04T09:04:13.868Z,81.75
2023-03-04T09:05:13.800Z,81.96
2023-03-04T09:06:13.805Z,81.65
2023-03-04T09:07:13.774Z,81.40
2023-03-04T09:08:13.759Z,81.30
2023-03-04T09:09:13.751Z,80.99
2023-03-04T09:10:13.734Z,80.79
2023-03-04T09:11:14.544Z,80.75
2023-03-04T09:12:13.847Z,79.44
2023-03-04T09:13:14.495Z,79.24
2023-03-04T09:14:13.694Z,79.20
2023-03-04T09:15:13.698Z,79.14
2023-03-04T09:16:13.698Z,79.30
2023-03-04T09:17:13.708Z,78.58
2023-03-04T09:18:13.649Z,77.97
2023-03-04T09:19:13.686Z,78.79
2023-03-04T09:20:13.760Z,78.24
2023-03-04T09:21:13.628Z,77.97
2023-03-04T09:22:13.608Z,77.55
2023-03-04T09:23:13.608Z,77.35
2023-03-04T09:24:13.584Z,77.14
2023-03-04T09:25:14.513Z,77.35
2023-03-04T09:26:13.570Z,77.25
2023-03-04T09:27:14.496Z,77.04
2023-03-04T09:28:13.569Z,77.04
2023-03-04T09:29:13.532Z,77.51
2023-03-04T09:30:13.528Z,77.21
2023-03-04T09:31:13.571Z,76.59
2023-03-04T09:32:14.030Z,77.11
2023-03-04T09:33:13.485Z,76.70
2023-03-04T09:34:13.483Z,76.59
2023-03-04T09:35:13.479Z,77.00
2023-03-04T09:36:13.460Z,76.90
2023-03-04T09:37:13.470Z,77.21
2023-03-04T09:38:13.428Z,77.11
2023-03-04T09:39:13.432Z,76.70
2023-03-04T09:40:13.417Z,77.21
2023-03-04T09:41:13.399Z,77.04
2023-03-04T09:42:13.383Z,77.21
2023-03-04T09:43:13.374Z,77.66
2023-03-04T09:44:13.380Z,77.72
2023-03-04T09:45:13.372Z,77.00
2023-03-04T09:46:13.406Z,77.14
2023-03-04T09:47:13.331Z,77.55
2023-03-04T09:48:13.322Z,77.62
2023-03-04T09:49:13.320Z,77.93
2023-03-04T09:50:13.315Z,77.86
2023-03-04T09:51:13.289Z,77.51
2023-03-04T09:52:13.273Z,76.70
2023-03-04T09:53:14.016Z,77.11
2023-03-04T09:54:13.250Z,76.86
2023-03-04T09:55:13.256Z,76.70
2023-03-04T09:56:13.229Z,75.42
2023-03-04T09:57:13.217Z,75.97
2023-03-04T09:58:13.226Z,74.95
2023-03-04T09:59:13.198Z,75.87
2023-03-04T10:00:13.208Z,75.84
2023-03-04T10:01:13.176Z,76.14
2023-03-04T10:02:13.162Z,75.63
2023-03-04T10:03:13.241Z,75.52
2023-03-04T10:04:13.143Z,75.49
2023-03-04T10:05:13.129Z,74.87
2023-03-04T10:06:13.118Z,74.98
2023-03-04T10:07:13.111Z,74.98
2023-03-04T10:08:13.110Z,74.87
2023-03-04T10:09:13.087Z,75.39
2023-03-04T10:10:13.078Z,75.49
2023-03-04T10:11:13.069Z,74.46
2023-03-04T10:12:13.059Z,74.57
2023-03-04T10:13:13.069Z,74.57
2023-03-04T10:14:13.044Z,74.91
2023-03-04T10:15:13.061Z,74.70
2023-03-04T10:16:13.053Z,75.63
2023-03-04T10:17:13.026Z,75.42
2023-03-04T10:18:12.991Z,74.91
2023-03-04T10:19:12.982Z,76.28
2023-03-04T10:20:12.967Z,75.52
2023-03-04T10:21:12.971Z,76.66
2023-03-04T10:22:12.945Z,75.70
2023-03-04T10:23:12.934Z,75.80
2023-03-04T10:24:13.529Z,75.49
2023-03-04T10:25:12.927Z,75.49
2023-03-04T10:26:12.954Z,75.29
2023-03-04T10:27:12.897Z,75.49
2023-03-04T10:28:12.875Z,75.59
2023-03-04T10:29:13.029Z,75.59
2023-03-04T10:30:12.851Z,75.15
2023-03-04T10:31:12.884Z,75.39
2023-03-04T10:32:12.936Z,75.29
2023-03-04T10:33:12.823Z,75.39
2023-03-04T10:34:12.810Z,75.39
2023-03-04T10:35:12.800Z,74.57
2023-03-04T10:36:12.781Z,75.49
2023-03-04T10:37:12.775Z,75.29
2023-03-04T10:38:12.779Z,75.39
2023-03-04T10:39:12.752Z,74.87
2023-03-04T10:40:12.751Z,74.08
2023-03-04T10:41:12.726Z,74.15
2023-03-04T10:42:12.821Z,74.08
2023-03-04T10:43:12.705Z,73.88
2023-03-04T10:44:12.689Z,73.95
2023-03-04T10:45:12.695Z,74.05
2023-03-04T10:46:12.676Z,74.15
2023-03-04T10:47:12.671Z,73.68
2023-03-04T10:48:12.673Z,72.92
2023-03-04T10:49:12.636Z,73.26
2023-03-04T10:50:12.881Z,73.23
2023-03-04T10:51:12.613Z,73.23
2023-03-04T10:52:12.633Z,73.02
2023-03-04T10:53:12.594Z,72.47
2023-03-04T10:54:12.580Z,72.47
2023-03-04T10:55:12.580Z,71.24
2023-03-04T10:56:12.565Z,71.69
2023-03-04T10:57:12.568Z,70.76
2023-03-04T10:58:12.542Z,70.97
2023-03-04T10:59:12.523Z,70.86
2023-03-04T11:00:12.530Z,71.10
2023-03-04T11:01:12.526Z,70.76
2023-03-04T11:02:12.511Z,70.90
2023-03-04T11:03:12.476Z,70.56
2023-03-04T11:04:12.585Z,70.56
2023-03-04T11:05:12.485Z,70.76
2023-03-04T11:06:12.442Z,70.97
2023-03-04T11:07:12.503Z,70.86
2023-03-04T11:08:12.418Z,70.45
2023-03-04T11:09:12.411Z,70.14
2023-03-04T11:10:12.397Z,69.84
2023-03-04T11:11:12.446Z,70.04
2023-03-04T11:12:12.379Z,70.35
2023-03-04T11:13:12.367Z,70.56
2023-03-04T11:14:12.353Z,70.14
2023-03-04T11:15:12.342Z,70.04
2023-03-04T11:16:12.578Z,70.14
2023-03-04T11:17:12.322Z,69.53
2023-03-04T11:18:12.356Z,69.53
2023-03-04T11:19:12.299Z,70.45
2023-03-04T11:20:12.318Z,69.87
2023-03-04T11:21:12.294Z,70.45
2023-03-04T11:22:12.277Z,70.25
2023-03-04T11:23:12.441Z,70.66
2023-03-04T11:24:27.193Z,70.35
2023-03-04T11:25:13.293Z,70.45
2023-03-04T11:26:12.217Z,69.42
2023-03-04T11:27:12.227Z,70.01
2023-03-04T11:28:12.190Z,69.60
2023-03-04T11:29:12.191Z,70.28
2023-03-04T11:30:12.170Z,70.49
2023-03-04T11:31:12.173Z,69.98
2023-03-04T11:32:12.379Z,70.18
2023-03-04T11:33:12.140Z,70.08
2023-03-04T11:34:13.642Z,70.18
2023-03-04T11:35:12.154Z,70.28
2023-03-04T11:36:12.130Z,69.87
2023-03-04T11:37:12.117Z,70.28
2023-03-04T11:38:12.120Z,70.94
2023-03-04T11:39:12.087Z,70.42
2023-03-04T11:40:12.101Z,70.52
2023-03-04T11:41:12.100Z,70.11
2023-03-04T11:42:12.056Z,70.01
2023-03-04T11:43:12.049Z,68.85
2023-03-04T11:44:12.129Z,69.02
2023-03-04T11:45:27.462Z,69.15
2023-03-04T11:46:13.123Z,67.17
2023-03-04T11:47:12.029Z,67.61
2023-03-04T11:48:12.003Z,67.38
2023-03-04T11:49:12.000Z,66.66
2023-03-04T11:50:11.988Z,67.17
2023-03-04T11:51:13.006Z,67.10
2023-03-04T11:52:11.999Z,66.89
2023-03-04T11:53:11.954Z,66.17
2023-03-04T11:54:11.936Z,66.28
2023-03-04T11:55:11.930Z,65.80
2023-03-04T11:56:11.946Z,66.00
2023-03-04T11:57:12.876Z,65.59
2023-03-04T11:58:11.948Z,66.07
2023-03-04T11:59:11.880Z,65.97
2023-03-04T12:00:11.870Z,65.77
2023-03-04T12:01:11.860Z,66.07
2023-03-04T12:02:11.878Z,65.66
2023-03-04T12:03:13.172Z,65.89
2023-03-04T12:04:11.888Z,66.31
2023-03-04T12:05:11.834Z,66.72
2023-03-04T12:06:11.804Z,66.41
2023-03-04T12:07:11.828Z,67.36
2023-03-04T12:08:11.803Z,67.26
2023-03-04T12:09:11.770Z,67.19
2023-03-04T12:10:11.763Z,68.22
2023-03-04T12:11:11.759Z,68.43
2023-03-04T12:12:11.753Z,68.53
2023-03-04T12:13:11.729Z,68.63
2023-03-04T12:14:11.744Z,68.74
2023-03-04T12:15:11.722Z,68.12
2023-03-04T12:16:12.756Z,68.53
2023-03-04T12:17:11.684Z,68.53
2023-03-04T12:18:11.672Z,68.63
2023-03-04T12:19:11.684Z,69.04
2023-03-04T12:20:19.022Z,69.59
2023-03-04T12:21:11.647Z,69.25
2023-03-04T12:22:11.639Z,69.25
2023-03-04T12:23:11.627Z,69.22
2023-03-04T12:24:11.643Z,68.70
2023-03-04T12:25:11.630Z,68.60
2023-03-04T12:26:11.641Z,68.16
2023-03-04T12:27:11.582Z,67.65
2023-03-04T12:28:11.580Z,66.79
2023-03-04T12:29:11.564Z,65.66
2023-03-04T12:30:11.551Z,65.83
2023-03-04T12:31:11.582Z,65.14
2023-03-04T12:32:11.575Z,64.70
2023-03-04T12:33:11.540Z,64.60
2023-03-04T12:34:11.500Z,63.65
2023-03-04T12:35:11.494Z,63.54
2023-03-04T12:36:11.603Z,63.24
2023-03-04T12:37:11.470Z,63.34
2023-03-04T12:38:11.454Z,63.00
2023-03-04T12:39:11.486Z,62.62
2023-03-04T12:40:11.492Z,62.49
2023-03-04T12:41:11.421Z,61.90
2023-03-04T12:42:11.424Z,62.11
2023-03-04T12:43:11.398Z,61.90
2023-03-04T12:44:11.395Z,61.70
2023-03-04T12:45:11.402Z,62.73
2023-03-04T12:46:11.431Z,62.62
2023-03-04T12:47:11.371Z,62.75
2023-03-04T12:48:11.341Z,62.65
2023-03-04T12:49:11.330Z,62.45
2023-03-04T12:50:11.320Z,62.68
2023-03-04T12:51:11.323Z,62.58
2023-03-04T12:52:11.301Z,61.55